< < Back
Terminal Aerodrome Forecast


Current Version              Previous Versions:   1  2  3  4  5  6  7  8  9  

Terminal Aerodrome Forecast

590
FTUS42 KFFC 211700
TAFAHN
TAF
KAHN 211731Z 2118/2218 27010KT P6SM SCT050
     FM220000 26004KT P6SM SCT100
     FM220600 27005KT P6SM SCT025 SCT050
     FM221000 31004KT P6SM SCT150
     FM221600 03006KT P6SM FEW150=

Latest METAR

697
SAUS70 KWBC 220000
MTRAHN
METAR KAHN 212351Z 24003KT 10SM CLR 26/16 A2994 RMK AO2 SLP132 T02560161
10311 20256 53004


USA.gov is the U.S. government's official web portal to all federal, state and local government web resources and services.